Time;durP1;ratioP1;P1;durP2;ratioP2;P2;SDS_P1;SDS_P2;PMS_P1;PMS_P2;Temp;Humidity;BMP_temperature;BMP_pressure;BME280_temperature;BME280_humidity;BME280_pressure;Samples;Min_cycle;Max_cycle;Signal;HPM_P1;HPM_P2
2022/11/05 00:09:31;;;;;;;25.80;18.00;;;;;;;9.90;100.00;97849.41;2102358;84;21111;-90
2022/11/05 00:19:13;;;;;;;26.20;18.82;;;;;;;10.02;100.00;97848.33;2108022;84;21071;-85
2022/11/05 00:25:33;;;;;;;29.95;21.20;;;;;;;10.08;100.00;97860.63;2108649;84;20996;-90
2022/11/05 00:28:34;;;;;;;29.48;20.25;;;;;;;10.04;100.00;97861.20;2109450;83;21530;-89
2022/11/05 00:31:35;;;;;;;29.12;19.30;;;;;;;10.00;100.00;97871.77;2144535;83;21072;-89
2022/11/05 00:34:36;;;;;;;38.75;24.15;;;;;;;9.90;100.00;97879.47;2144809;83;21566;-88
2022/11/05 00:37:37;;;;;;;41.95;29.42;;;;;;;9.79;100.00;97872.70;2144324;83;20976;-91
2022/11/05 00:40:38;;;;;;;46.45;31.80;;;;;;;9.69;100.00;97877.78;2143471;83;20977;-92
2022/11/05 00:49:28;;;;;;;40.12;29.75;;;;;;;9.53;100.00;97885.94;2143792;83;21056;-91
2022/11/05 00:50:00;;;;;;;42.23;29.23;;;;;;;9.55;100.00;97894.38;2139206;83;21007;-90
2022/11/05 00:53:01;;;;;;;35.05;23.42;;;;;;;9.57;100.00;97900.72;2143507;83;21000;-90
2022/11/05 00:56:02;;;;;;;33.05;23.65;;;;;;;9.54;100.00;97908.95;2143111;83;21055;-91
2022/11/05 00:59:02;;;;;;;33.30;21.17;;;;;;;9.50;100.00;97912.42;2143569;83;21052;-90
2022/11/05 01:02:03;;;;;;;32.95;21.48;;;;;;;9.44;100.00;97913.72;2143686;83;20985;-92
2022/11/05 01:05:04;;;;;;;37.80;22.48;;;;;;;9.42;100.00;97917.83;2143535;83;21051;-92
2022/11/05 01:08:05;;;;;;;41.02;24.43;;;;;;;9.40;100.00;97923.72;2143122;83;20988;-91
2022/11/05 01:11:05;;;;;;;34.75;22.30;;;;;;;9.40;100.00;97928.45;2143610;83;20945;-90
2022/11/05 01:14:07;;;;;;;35.35;21.37;;;;;;;9.47;100.00;97925.89;2143086;83;21499;-89
2022/11/05 01:17:08;;;;;;;34.03;22.05;;;;;;;9.49;100.00;97916.55;2150182;80;22134;-90
2022/11/05 01:20:08;;;;;;;29.60;21.55;;;;;;;9.49;100.00;97922.58;2175175;82;20968;-90
2022/11/05 01:23:09;;;;;;;31.97;22.77;;;;;;;9.47;100.00;97921.16;2175553;81;20979;-91
2022/11/05 01:26:10;;;;;;;36.03;23.50;;;;;;;9.48;100.00;97921.47;2175858;81;20964;-88
2022/11/05 01:29:11;;;;;;;31.12;21.85;;;;;;;9.44;100.00;97918.44;2177543;81;20990;-87
2022/11/05 01:32:12;;;;;;;37.65;23.40;;;;;;;9.40;100.00;97909.36;2177495;81;20983;-88
2022/11/05 01:35:12;;;;;;;34.88;22.60;;;;;;;9.34;100.00;97905.72;2177459;82;20944;-89
2022/11/05 01:38:13;;;;;;;31.85;21.85;;;;;;;9.35;100.00;97913.86;2175858;82;20988;-90
2022/11/05 01:41:14;;;;;;;32.58;21.70;;;;;;;9.31;100.00;97923.06;2176182;82;21479;-89
2022/11/05 01:44:15;;;;;;;34.83;22.50;;;;;;;9.29;100.00;97923.76;2178601;82;20979;-88
2022/11/05 01:47:16;;;;;;;38.73;22.98;;;;;;;9.30;100.00;97928.48;2177975;82;21050;-88
2022/11/05 01:50:16;;;;;;;36.42;21.68;;;;;;;9.31;100.00;97924.87;2175767;81;21039;-90
2022/11/05 01:53:17;;;;;;;32.50;21.37;;;;;;;9.31;100.00;97920.45;2174599;81;20976;-91
2022/11/05 01:56:18;;;;;;;31.20;21.50;;;;;;;9.28;100.00;97927.37;2175945;81;20944;-88
2022/11/05 01:59:19;;;;;;;32.03;21.80;;;;;;;9.29;100.00;97942.05;2179109;81;20967;-87
2022/11/05 02:02:19;;;;;;;31.55;21.02;;;;;;;9.32;100.00;97937.73;2177207;82;20998;-90
2022/11/05 02:05:20;;;;;;;31.65;21.65;;;;;;;9.38;100.00;97942.71;2175072;82;20991;-90
2022/11/05 02:08:21;;;;;;;33.73;21.33;;;;;;;9.40;100.00;97940.20;2175379;81;20980;-90
2022/11/05 02:11:21;;;;;;;34.67;22.25;;;;;;;9.39;100.00;97947.74;2175393;82;22074;-90
2022/11/05 02:14:22;;;;;;;33.50;22.22;;;;;;;9.40;100.00;97943.32;2175009;81;20988;-90
2022/11/05 02:17:23;;;;;;;32.65;21.48;;;;;;;9.43;100.00;97946.08;2174093;81;20946;-90
2022/11/05 02:20:24;;;;;;;31.25;22.55;;;;;;;9.43;100.00;97944.27;2171568;82;21018;-89
2022/11/05 02:23:24;;;;;;;35.20;22.05;;;;;;;9.42;100.00;97953.11;2171175;82;21062;-92
2022/11/05 02:26:25;;;;;;;28.35;20.35;;;;;;;9.46;100.00;97957.44;2170837;82;20955;-91
2022/11/05 02:29:26;;;;;;;35.85;21.97;;;;;;;9.41;100.00;97961.91;2172612;82;20897;-88
2022/11/05 02:32:27;;;;;;;34.15;22.07;;;;;;;9.39;100.00;97967.34;2174261;80;21020;-87
2022/11/05 02:35:27;;;;;;;30.77;21.07;;;;;;;9.36;100.00;97955.97;2172731;82;20996;-88
2022/11/05 02:38:28;;;;;;;34.58;22.05;;;;;;;9.35;100.00;97960.08;2172714;82;20967;-88
2022/11/05 02:41:29;;;;;;;34.95;24.47;;;;;;;9.33;100.00;97972.53;2171926;82;20952;-91
2022/11/05 02:44:30;;;;;;;33.48;23.50;;;;;;;9.29;100.00;97969.97;2171519;82;20952;-89
2022/11/05 02:47:30;;;;;;;34.27;23.45;;;;;;;9.28;100.00;97974.39;2148210;82;21027;-90
2022/11/05 02:50:31;;;;;;;35.92;24.85;;;;;;;9.26;100.00;97972.47;2171050;82;21067;-91
2022/11/05 02:53:32;;;;;;;37.15;25.00;;;;;;;9.27;100.00;97975.89;2170509;82;21024;-90
2022/11/05 02:56:33;;;;;;;37.85;25.27;;;;;;;9.26;100.00;97982.11;2170090;82;21483;-91
2022/11/05 02:59:34;;;;;;;32.73;23.60;;;;;;;9.27;100.00;97984.53;2170092;82;21617;-91
2022/11/05 03:02:35;;;;;;;36.93;23.65;;;;;;;9.28;100.00;97986.14;2170089;82;20971;-91
2022/11/05 03:05:36;;;;;;;34.43;22.60;;;;;;;9.32;100.00;97990.48;2170729;82;21083;-91
2022/11/05 03:08:37;;;;;;;38.78;23.70;;;;;;;9.34;100.00;97988.52;2170748;82;20974;-91
2022/11/05 03:11:37;;;;;;;30.88;21.60;;;;;;;9.37;100.00;97990.73;2170569;82;20912;-91
2022/11/05 03:14:38;;;;;;;32.40;21.37;;;;;;;9.42;100.00;98000.14;2170080;82;21023;-91
2022/11/05 03:17:39;;;;;;;30.60;20.92;;;;;;;9.44;100.00;98003.36;2169916;82;20948;-92
2022/11/05 03:20:39;;;;;;;35.45;22.42;;;;;;;9.49;100.00;98008.81;2170169;82;20971;-90
2022/11/05 03:23:40;;;;;;;32.50;21.85;;;;;;;9.52;100.00;98016.80;2170279;82;21034;-86
2022/11/05 03:26:41;;;;;;;28.73;19.55;;;;;;;9.56;100.00;98012.79;2170990;82;21034;-86
2022/11/05 03:29:42;;;;;;;27.10;18.90;;;;;;;9.58;100.00;98019.44;2170298;82;21561;-90
2022/11/05 03:32:42;;;;;;;29.45;19.17;;;;;;;9.61;100.00;98032.15;2170076;82;21518;-89
2022/11/05 03:35:43;;;;;;;27.30;19.02;;;;;;;9.61;100.00;98020.89;2170072;82;20948;-89
2022/11/05 03:38:44;;;;;;;26.37;18.67;;;;;;;9.60;100.00;98031.00;2170766;82;20987;-90
2022/11/05 03:41:45;;;;;;;23.98;18.17;;;;;;;9.60;100.00;98046.22;2172394;82;20964;-88
2022/11/05 03:44:45;;;;;;;21.87;16.40;;;;;;;9.59;100.00;98042.46;2174170;80;21479;-84
2022/11/05 03:47:46;;;;;;;26.68;17.23;;;;;;;9.57;100.00;98042.66;2171776;82;20995;-90
2022/11/05 03:50:47;;;;;;;23.85;16.90;;;;;;;9.60;100.00;98045.38;2170129;82;20917;-90
2022/11/05 03:53:47;;;;;;;24.10;16.80;;;;;;;9.65;100.00;98050.86;2170577;82;21586;-90
2022/11/05 03:56:48;;;;;;;20.95;14.75;;;;;;;9.66;100.00;98052.47;2173648;82;21016;-88
2022/11/05 03:59:49;;;;;;;22.05;15.80;;;;;;;9.66;100.00;98051.97;2173720;82;20960;-85
2022/11/05 04:02:50;;;;;;;17.67;13.40;;;;;;;9.66;100.00;98055.89;2170805;82;21022;-90
2022/11/05 04:19:07;;;;;;;17.20;11.75;;;;;;;9.61;100.00;98053.56;2170120;80;21000;-89
2022/11/05 04:25:27;;;;;;;11.85;10.60;;;;;;;9.55;100.00;98069.48;2170131;82;21507;-89
2022/11/05 04:30:17;;;;;;;11.38;10.25;;;;;;;9.47;100.00;98057.85;2170489;82;20999;-88
2022/11/05 04:31:31;;;;;;;13.78;10.13;;;;;;;9.46;100.00;98058.85;2166744;82;21098;-88
2022/11/05 04:34:31;;;;;;;10.93;9.80;;;;;;;9.45;100.00;98057.23;2170248;82;21530;-88
2022/11/05 04:37:32;;;;;;;12.58;10.30;;;;;;;9.41;100.00;98067.23;2170235;82;21569;-88
2022/11/05 04:40:33;;;;;;;16.00;13.00;;;;;;;9.41;100.00;98084.72;2170117;82;20999;-88
2022/11/05 04:43:34;;;;;;;14.28;11.22;;;;;;;9.39;100.00;98092.75;2170279;82;21007;-91
2022/11/05 04:46:34;;;;;;;11.90;10.65;;;;;;;9.38;100.00;98085.11;2170432;82;20976;-89
2022/11/05 04:49:35;;;;;;;12.07;10.88;;;;;;;9.32;100.00;98083.23;2170172;82;20960;-89
2022/11/05 04:52:36;;;;;;;11.28;10.18;;;;;;;9.32;100.00;98089.27;2170116;82;20967;-87
2022/11/05 04:55:37;;;;;;;15.60;11.10;;;;;;;9.30;100.00;98093.88;2170236;82;21456;-88
2022/11/05 04:58:38;;;;;;;12.95;10.95;;;;;;;9.28;100.00;98101.59;2170243;82;21535;-87
2022/11/05 05:01:39;;;;;;;17.48;11.63;;;;;;;9.26;100.00;98093.14;2170021;82;20983;-88
2022/11/05 05:04:40;;;;;;;19.00;12.30;;;;;;;9.26;100.00;98097.05;2169900;82;21028;-89
2022/11/05 05:07:40;;;;;;;19.62;12.07;;;;;;;9.24;100.00;98098.55;2170163;82;21475;-88
2022/11/05 05:10:41;;;;;;;25.68;14.07;;;;;;;9.23;100.00;98105.24;2169931;82;20968;-87
2022/11/05 05:13:42;;;;;;;18.37;12.28;;;;;;;9.25;100.00;98106.70;2169967;82;20956;-88
2022/11/05 05:16:43;;;;;;;17.95;11.15;;;;;;;9.27;100.00;98103.40;2169945;82;21443;-89
2022/11/05 05:23:02;;;;;;;16.35;11.88;;;;;;;9.32;100.00;98103.63;2174774;82;20979;-85
2022/11/05 05:26:03;;;;;;;13.03;11.60;;;;;;;9.37;100.00;98103.89;2174814;81;20952;-88
2022/11/05 05:29:04;;;;;;;12.28;11.00;;;;;;;9.35;100.00;98104.59;2174916;81;21098;-87
2022/11/05 05:32:05;;;;;;;12.60;11.40;;;;;;;9.35;100.00;98116.84;2174970;82;20979;-87
2022/11/05 05:35:06;;;;;;;12.40;11.28;;;;;;;9.33;100.00;98116.23;2174762;81;21420;-88
2022/11/05 05:38:06;;;;;;;12.10;11.00;;;;;;;9.34;100.00;98119.14;2174912;81;20964;-88
2022/11/05 05:41:07;;;;;;;12.07;10.98;;;;;;;9.36;100.00;98126.30;2177696;80;20909;-84
2022/11/05 05:44:08;;;;;;;12.37;11.22;;;;;;;9.38;100.00;98126.91;2178334;81;20952;-85
2022/11/05 05:47:09;;;;;;;12.20;11.10;;;;;;;9.41;100.00;98133.06;2176129;81;20968;-87
2022/11/05 05:50:09;;;;;;;12.45;11.22;;;;;;;9.39;100.00;98135.06;2174722;81;20964;-88
2022/11/05 05:53:10;;;;;;;14.28;11.80;;;;;;;9.37;100.00;98136.55;2174862;81;21482;-87
2022/11/05 05:56:13;;;;;;;14.33;12.58;;;;;;;9.35;100.00;98138.55;2178485;79;20964;-84
2022/11/05 05:59:14;;;;;;;13.72;12.33;;;;;;;9.39;100.00;98148.13;2177906;81;20984;-84
2022/11/05 06:02:14;;;;;;;12.50;11.28;;;;;;;9.39;100.00;98148.93;2175375;81;20964;-88
2022/11/05 06:05:15;;;;;;;13.98;12.68;;;;;;;9.43;100.00;98155.11;2174618;82;20995;-87
2022/11/05 06:08:16;;;;;;;15.10;13.30;;;;;;;9.44;100.00;98158.03;2174714;82;20959;-88
2022/11/05 06:11:17;;;;;;;15.65;12.58;;;;;;;9.51;100.00;98170.17;2174935;81;21542;-87
2022/11/05 06:14:17;;;;;;;13.72;12.28;;;;;;;9.56;100.00;98174.83;2145314;82;20971;-88
2022/11/05 06:17:18;;;;;;;17.02;12.55;;;;;;;9.57;100.00;98173.33;2174574;81;21023;-89
2022/11/05 06:20:19;;;;;;;20.55;15.25;;;;;;;9.59;100.00;98168.72;2171648;81;20955;-85
2022/11/05 06:23:20;;;;;;;30.90;17.62;;;;;;;9.68;100.00;98181.17;2172282;82;21672;-89
2022/11/05 06:26:21;;;;;;;36.15;18.90;;;;;;;9.75;100.00;98176.02;2171236;82;21409;-88
2022/11/05 06:29:21;;;;;;;38.10;19.23;;;;;;;9.82;100.00;98174.28;2170849;82;20992;-89
2022/11/05 06:32:24;;;;;;;40.73;20.43;;;;;;;9.83;100.00;98192.39;2171312;82;20972;-85
2022/11/05 06:35:25;;;;;;;31.42;20.02;;;;;;;9.89;100.00;98194.77;2172681;80;21031;-81
2022/11/05 06:38:25;;;;;;;44.03;20.97;;;;;;;9.92;100.00;98192.58;2172438;82;20944;-84
2022/11/05 06:41:26;;;;;;;33.30;20.82;;;;;;;9.98;100.00;98202.80;2171650;82;21011;-85
2022/11/05 06:44:27;;;;;;;56.60;32.40;;;;;;;10.01;100.00;98210.75;2170248;82;20956;-85
2022/11/05 06:47:28;;;;;;;44.35;28.98;;;;;;;10.00;100.00;98220.41;2171287;82;20984;-88
2022/11/05 06:50:29;;;;;;;39.70;28.20;;;;;;;9.97;100.00;98224.72;2170439;82;20932;-84
2022/11/05 06:53:29;;;;;;;29.65;21.55;;;;;;;9.93;100.00;98229.49;2170257;82;21460;-86
2022/11/05 06:56:30;;;;;;;19.80;17.48;;;;;;;9.95;100.00;98236.65;2170858;82;21526;-86
2022/11/05 06:59:31;;;;;;;25.70;17.73;;;;;;;9.95;100.00;98235.34;2171767;81;20940;-87
2022/11/05 07:02:31;;;;;;;23.70;16.40;;;;;;;9.96;100.00;98235.65;2174265;82;20975;-86
2022/11/05 07:05:35;;;;;;;17.87;13.13;;;;;;;10.02;100.00;98247.68;2166558;81;20973;-87
2022/11/05 07:08:49;;;;;;;17.65;13.08;;;;;;;10.05;100.00;98251.22;2168589;82;21033;-84
2022/11/05 07:11:52;;;;;;;22.82;17.57;;;;;;;10.10;100.00;98262.75;2165524;82;21103;-83
2022/11/05 07:14:59;;;;;;;29.37;21.27;;;;;;;10.13;100.00;98259.75;2173036;82;21040;-84
2022/11/05 07:18:01;;;;;;;33.02;22.65;;;;;;;10.14;100.00;98260.06;2148427;82;21472;-83
2022/11/05 07:21:07;;;;;;;31.40;23.60;;;;;;;10.16;100.00;98265.94;2170959;81;20972;-86
2022/11/05 07:24:14;;;;;;;21.30;17.00;;;;;;;10.22;100.00;98270.44;2174236;82;21499;-82
2022/11/05 07:27:19;;;;;;;19.45;15.45;;;;;;;10.23;100.00;98277.28;2170888;81;21079;-84
2022/11/05 07:30:24;;;;;;;20.68;16.02;;;;;;;10.24;100.00;98277.63;2177282;81;20987;-83
2022/11/05 07:33:34;;;;;;;18.10;14.13;;;;;;;10.27;100.00;98286.89;2172976;81;21051;-84
2022/11/05 07:36:38;;;;;;;16.12;13.93;;;;;;;10.24;100.00;98288.09;2177572;81;21521;-87
2022/11/05 07:39:43;;;;;;;17.35;13.53;;;;;;;10.25;100.00;98288.39;2187383;81;21070;-89
2022/11/05 07:42:55;;;;;;;16.80;12.90;;;;;;;10.25;100.00;98300.67;2188759;81;25318;-85
2022/11/05 07:45:57;;;;;;;19.82;14.93;;;;;;;10.24;100.00;98296.41;2173485;81;21058;-86
2022/11/05 07:48:59;;;;;;;20.20;13.38;;;;;;;10.27;100.00;98300.48;2173971;82;21048;-83
2022/11/05 07:52:06;;;;;;;14.75;12.40;;;;;;;10.30;100.00;98300.91;2172416;82;21092;-80
2022/11/05 07:55:14;;;;;;;16.85;13.32;;;;;;;10.30;100.00;98302.20;2173684;82;21029;-84
2022/11/05 07:58:12;;;;;;;18.92;13.95;;;;;;;10.31;100.00;98301.70;2162436;82;21122;-87
2022/11/05 08:01:19;;;;;;;18.92;13.60;;;;;;;10.37;100.00;98302.28;2168710;82;21040;-88
2022/11/05 08:04:20;;;;;;;16.73;12.10;;;;;;;10.36;100.00;98303.28;2170001;82;21041;-87
2022/11/05 08:07:47;;;;;;;20.65;13.75;;;;;;;10.35;100.00;98305.09;2174183;81;20994;-83
2022/11/05 08:10:33;;;;;;;21.15;13.58;;;;;;;10.34;100.00;98308.70;2167832;82;21056;-81
2022/11/05 08:13:41;;;;;;;17.77;13.60;;;;;;;10.36;100.00;98306.70;2174120;81;21009;-86
2022/11/05 08:16:47;;;;;;;23.62;14.50;;;;;;;10.36;100.00;98308.02;2165692;82;21536;-86
2022/11/05 08:19:45;;;;;;;23.90;14.58;;;;;;;10.39;100.00;98312.05;2164962;81;21073;-85
2022/11/05 08:22:53;;;;;;;23.98;15.50;;;;;;;10.38;100.00;98315.17;2169486;82;21114;-85
2022/11/05 08:25:52;;;;;;;20.65;14.07;;;;;;;10.36;100.00;98318.48;2165346;82;21049;-86
2022/11/05 08:29:06;;;;;;;15.20;11.83;;;;;;;10.39;100.00;98322.52;2145399;82;21013;-86
2022/11/05 08:32:09;;;;;;;27.27;14.38;;;;;;;10.37;100.00;98323.21;2160570;82;21099;-87
2022/11/05 08:35:13;;;;;;;23.70;13.60;;;;;;;10.37;100.00;98323.21;2163511;82;21508;-85
2022/11/05 08:38:17;;;;;;;23.92;16.32;;;;;;;10.44;100.00;98331.44;2163629;82;21076;-86
2022/11/05 08:41:23;;;;;;;24.82;17.62;;;;;;;10.42;100.00;98329.98;2163800;82;21036;-83
2022/11/05 08:44:24;;;;;;;26.70;16.00;;;;;;;10.40;100.00;98332.80;2162724;82;21049;-85
2022/11/05 08:47:23;;;;;;;22.32;15.88;;;;;;;10.40;100.00;98337.22;2164888;80;20997;-83
2022/11/05 08:50:36;;;;;;;21.50;15.40;;;;;;;10.38;100.00;98337.41;2174500;81;21143;-83
2022/11/05 08:53:40;;;;;;;26.20;16.97;;;;;;;10.36;100.00;98337.30;2165476;82;21084;-83
2022/11/05 08:56:43;;;;;;;26.50;17.25;;;;;;;10.32;100.00;98332.92;2168362;82;21071;-84
2022/11/05 08:59:50;;;;;;;27.62;17.85;;;;;;;10.31;100.00;98340.96;2166861;82;21052;-83
2022/11/05 09:02:53;;;;;;;24.45;15.65;;;;;;;10.34;100.00;98340.61;2162759;82;21774;-85
2022/11/05 09:05:58;;;;;;;27.32;17.35;;;;;;;10.37;100.00;98345.46;2165642;82;21095;-81
2022/11/05 09:09:09;;;;;;;25.65;16.87;;;;;;;10.38;100.00;98349.19;2172107;82;21080;-86
2022/11/05 09:12:16;;;;;;;20.10;14.93;;;;;;;10.39;100.00;98347.38;2171422;82;21021;-86
2022/11/05 09:15:20;;;;;;;21.02;14.68;;;;;;;10.45;100.00;98353.19;2171905;82;21077;-87
2022/11/05 09:18:37;;;;;;;20.10;14.58;;;;;;;10.53;100.00;98357.80;2173644;82;21136;-87
2022/11/05 09:21:35;;;;;;;17.60;11.48;;;;;;;10.61;100.00;98363.91;2164117;82;21068;-87
2022/11/05 09:24:39;;;;;;;15.95;10.55;;;;;;;10.59;100.00;98364.08;2170743;82;21017;-87
2022/11/05 09:27:40;;;;;;;11.85;8.75;;;;;;;10.61;100.00;98371.77;2149267;82;21579;-86
2022/11/05 09:30:47;;;;;;;13.75;9.45;;;;;;;10.66;100.00;98366.26;2172313;82;21064;-86
2022/11/05 09:33:44;;;;;;;15.15;10.13;;;;;;;10.71;100.00;98370.95;2166713;82;21718;-86
2022/11/05 09:36:56;;;;;;;13.78;9.13;;;;;;;10.71;100.00;98370.95;2176936;82;21017;-82
2022/11/05 09:39:53;;;;;;;12.93;9.08;;;;;;;10.73;100.00;98388.58;2171745;82;21049;-82
2022/11/05 09:43:06;;;;;;;13.08;8.03;;;;;;;10.73;100.00;98388.58;2167394;82;21075;-88
2022/11/05 09:46:09;;;;;;;12.68;8.75;;;;;;;10.74;100.00;98389.70;2168275;82;21131;-83
2022/11/05 09:49:15;;;;;;;13.38;8.75;;;;;;;10.72;100.00;98393.52;2160131;82;21074;-82
2022/11/05 09:52:21;;;;;;;12.37;8.18;;;;;;;10.62;100.00;98394.33;2134558;83;21061;-85
2022/11/05 09:55:26;;;;;;;12.68;8.23;;;;;;;10.79;100.00;98410.10;2121606;84;21094;-85
2022/11/05 09:58:20;;;;;;;11.35;8.25;;;;;;;10.79;100.00;98410.10;2132516;83;21116;-79
2022/11/05 10:01:21;;;;;;;10.88;7.15;;;;;;;10.81;100.00;98410.22;2138501;83;21038;-86
2022/11/05 10:04:22;;;;;;;11.57;7.12;;;;;;;10.86;100.00;98417.49;2138196;83;21037;-86
2022/11/05 10:07:26;;;;;;;9.58;6.95;;;;;;;10.82;100.00;98422.31;2126563;83;20986;-86
2022/11/05 10:10:25;;;;;;;7.45;6.10;;;;;;;10.78;100.00;98418.92;2126525;83;21047;-90
2022/11/05 10:13:35;;;;;;;12.60;11.25;;;;;;;10.72;100.00;98423.13;2138566;83;21097;-88
2022/11/05 10:16:35;;;;;;;11.55;8.75;;;;;;;10.65;100.00;98426.17;2137365;83;21081;-86
2022/11/05 10:19:38;;;;;;;9.48;6.85;;;;;;;10.66;100.00;98436.95;2140451;82;21090;-82
2022/11/05 10:22:42;;;;;;;9.48;6.22;;;;;;;10.67;100.00;98436.45;2129293;84;21117;-82
2022/11/05 10:25:46;;;;;;;10.45;7.00;;;;;;;10.68;100.00;98432.84;2127691;84;21552;-87
2022/11/05 10:28:47;;;;;;;9.03;7.12;;;;;;;10.76;100.00;98431.41;2138349;83;21600;-87
2022/11/05 10:31:48;;;;;;;10.53;8.20;;;;;;;10.76;100.00;98431.41;2125921;83;21030;-87
2022/11/05 10:34:48;;;;;;;13.08;8.13;;;;;;;10.73;100.00;98434.41;2139728;83;21069;-83
2022/11/05 10:37:49;;;;;;;10.70;9.08;;;;;;;10.68;100.00;98433.64;2128955;83;20991;-83
2022/11/05 10:40:50;;;;;;;12.35;8.43;;;;;;;10.66;100.00;98425.17;2127310;84;21597;-87
2022/11/05 10:43:54;;;;;;;15.08;10.00;;;;;;;10.66;100.00;98430.41;2126425;83;21062;-87
2022/11/05 10:46:56;;;;;;;15.63;9.13;;;;;;;10.66;100.00;98428.30;2104029;84;21069;-86
2022/11/05 10:49:58;;;;;;;12.53;9.35;;;;;;;10.65;100.00;98429.30;2139015;83;20963;-87
2022/11/05 10:53:00;;;;;;;15.58;10.85;;;;;;;10.64;100.00;98439.45;2107964;83;21094;-87
2022/11/05 10:56:01;;;;;;;22.52;12.40;;;;;;;10.64;100.00;98439.45;2138820;83;21069;-85
2022/11/05 10:59:02;;;;;;;20.68;11.70;;;;;;;10.64;100.00;98436.34;2138135;83;21040;-84
2022/11/05 11:02:03;;;;;;;17.62;10.93;;;;;;;10.63;100.00;98441.27;2138199;83;21118;-85
2022/11/05 11:05:08;;;;;;;17.82;12.18;;;;;;;10.58;100.00;98443.62;2138006;83;21050;-86
2022/11/05 11:08:16;;;;;;;17.00;11.97;;;;;;;10.58;100.00;98443.62;2138499;83;20982;-84
2022/11/05 11:11:11;;;;;;;19.77;12.65;;;;;;;10.56;100.00;98444.30;2135579;83;21112;-85
2022/11/05 11:14:12;;;;;;;22.00;14.15;;;;;;;10.58;100.00;98444.92;2138324;83;21038;-86
2022/11/05 11:17:13;;;;;;;19.65;13.88;;;;;;;10.64;100.00;98444.19;2138834;82;21055;-83
2022/11/05 11:20:16;;;;;;;25.05;15.15;;;;;;;10.65;100.00;98439.77;2137500;82;21046;-85
2022/11/05 11:23:17;;;;;;;24.20;15.85;;;;;;;10.63;100.00;98443.88;2135348;83;21119;-87
2022/11/05 11:26:18;;;;;;;19.87;14.45;;;;;;;10.60;100.00;98443.42;2107718;83;21405;-85
2022/11/05 11:29:18;;;;;;;30.48;17.92;;;;;;;10.64;100.00;98452.55;2135724;83;21070;-86
2022/11/05 11:32:19;;;;;;;24.32;18.00;;;;;;;10.66;100.00;98444.00;2136736;83;21019;-87
2022/11/05 11:35:20;;;;;;;21.82;15.15;;;;;;;10.63;100.00;98451.73;2135765;83;21043;-93
2022/11/05 11:38:23;;;;;;;26.42;18.85;;;;;;;10.67;100.00;98453.47;2134267;83;21536;-89
2022/11/05 11:41:23;;;;;;;24.65;18.23;;;;;;;10.67;100.00;98463.95;2133517;83;21019;-88
2022/11/05 11:44:26;;;;;;;21.55;16.90;;;;;;;10.69;100.00;98456.21;2133879;83;21054;-87
2022/11/05 11:47:26;;;;;;;21.68;15.45;;;;;;;10.69;100.00;98460.14;2133658;83;21040;-90
2022/11/05 11:50:27;;;;;;;19.85;15.55;;;;;;;10.72;100.00;98458.48;2132801;83;20970;-90
2022/11/05 11:53:30;;;;;;;21.82;14.33;;;;;;;10.66;100.00;98456.59;2104965;83;21042;-90
2022/11/05 11:56:33;;;;;;;21.93;16.45;;;;;;;10.66;100.00;98456.59;2070205;85;21604;-90
2022/11/05 11:59:34;;;;;;;20.43;14.13;;;;;;;10.73;100.00;98464.02;2069618;86;21581;-85
2022/11/05 12:02:35;;;;;;;19.15;14.63;;;;;;;10.70;100.00;98467.52;2092583;85;21025;-84
2022/11/05 12:05:35;;;;;;;23.25;16.05;;;;;;;10.64;100.00;98467.76;2091073;84;21014;-87
2022/11/05 12:08:36;;;;;;;21.52;14.90;;;;;;;10.62;100.00;98468.45;2071759;85;21635;-88
2022/11/05 12:11:37;;;;;;;21.17;15.53;;;;;;;10.63;100.00;98476.61;2091121;85;20986;-91
2022/11/05 12:14:38;;;;;;;19.00;13.45;;;;;;;10.68;100.00;98484.70;2090476;85;21025;-87
2022/11/05 12:17:38;;;;;;;15.35;12.25;;;;;;;10.67;100.00;98495.38;2071998;85;20997;-87
2022/11/05 12:20:39;;;;;;;19.32;13.38;;;;;;;10.66;100.00;98495.06;2096623;83;21066;-86
2022/11/05 12:23:40;;;;;;;19.57;14.98;;;;;;;10.63;100.00;98495.44;2148749;83;21043;-85
2022/11/05 12:26:41;;;;;;;17.48;14.28;;;;;;;10.61;100.00;98506.10;2146420;83;21325;-87
2022/11/05 12:29:41;;;;;;;18.52;13.88;;;;;;;10.60;100.00;98505.76;2117555;83;21035;-88
2022/11/05 12:32:42;;;;;;;18.40;13.45;;;;;;;10.60;100.00;98508.88;2145850;83;21020;-88
2022/11/05 12:35:43;;;;;;;21.57;13.88;;;;;;;10.55;100.00;98509.45;2195459;81;20996;-85
2022/11/05 12:38:47;;;;;;;18.90;12.95;;;;;;;10.48;100.00;98514.59;2193686;81;21036;-87
2022/11/05 12:41:49;;;;;;;17.20;13.83;;;;;;;10.44;100.00;98515.16;2159495;81;21020;-87
2022/11/05 12:44:55;;;;;;;19.73;14.23;;;;;;;10.42;100.00;98525.82;2180316;81;21067;-86
2022/11/05 12:47:56;;;;;;;21.27;15.72;;;;;;;10.42;100.00;98525.82;2191157;81;21513;-86
2022/11/05 12:51:01;;;;;;;21.33;16.05;;;;;;;10.44;100.00;98533.48;2190758;81;21028;-89
2022/11/05 12:54:13;;;;;;;;;;;;;;;;;;;;;
2022/11/05 12:57:08;;;;;;;29.15;17.35;;;;;;;10.44;100.00;98533.48;2155734;81;21539;-86
2022/11/05 13:00:09;;;;;;;27.85;20.05;;;;;;;10.44;100.00;98533.48;2190752;81;21028;-87
2022/11/05 13:03:10;;;;;;;26.73;19.00;;;;;;;10.41;100.00;98533.83;2191386;81;21024;-88
2022/11/05 13:06:13;;;;;;;28.45;20.40;;;;;;;10.42;100.00;98545.92;2075665;86;21084;-86
2022/11/05 13:09:19;;;;;;;27.35;19.17;;;;;;;10.40;100.00;98553.15;2034631;87;21095;-86
2022/11/05 13:12:21;;;;;;;26.17;17.65;;;;;;;10.38;100.00;98558.57;2041105;86;21095;-86
2022/11/05 13:15:22;;;;;;;27.70;18.30;;;;;;;10.35;100.00;98552.40;2034603;87;21184;-84
2022/11/05 13:18:25;;;;;;;26.37;19.17;;;;;;;10.31;100.00;98551.13;2063479;86;21114;-85
2022/11/05 13:21:27;;;;;;;26.15;18.10;;;;;;;10.34;100.00;98553.89;2029441;87;21119;-88
2022/11/05 13:24:33;;;;;;;27.98;19.90;;;;;;;10.35;100.00;98563.37;2055139;86;21072;-85
2022/11/05 13:27:34;;;;;;;25.68;19.05;;;;;;;10.35;100.00;98566.80;2056739;86;21092;-85
2022/11/05 13:30:36;;;;;;;29.37;20.60;;;;;;;10.34;100.00;98569.10;2014332;88;21616;-85
2022/11/05 13:33:40;;;;;;;34.70;21.52;;;;;;;10.33;100.00;98569.25;2056853;86;21140;-84
2022/11/05 13:40:00;;;;;;;36.95;24.95;;;;;;;10.25;100.00;98574.11;2051782;87;21123;-86
2022/11/05 13:43:04;;;;;;;42.53;27.48;;;;;;;10.25;100.00;98574.11;2011975;88;21104;-86
2022/11/05 13:46:04;;;;;;;38.48;25.68;;;;;;;10.24;100.00;98582.45;2055665;86;21198;-85
2022/11/05 13:49:05;;;;;;;35.95;25.40;;;;;;;10.25;100.00;98579.34;2011954;88;21058;-85
2022/11/05 13:52:06;;;;;;;43.87;32.63;;;;;;;10.25;100.00;98582.77;2058304;85;21078;-85
2022/11/05 13:55:07;;;;;;;56.20;36.20;;;;;;;10.21;100.00;98580.15;2061787;86;21483;-85
2022/11/05 13:58:07;;;;;;;41.53;28.15;;;;;;;10.24;100.00;98584.23;2075912;86;21020;-87
2022/11/05 14:01:08;;;;;;;42.23;29.12;;;;;;;10.24;100.00;98586.84;2051322;86;21123;-85
2022/11/05 14:04:09;;;;;;;38.85;28.90;;;;;;;10.20;100.00;98596.03;2134348;82;21045;-87
2022/11/05 14:07:09;;;;;;;39.67;26.62;;;;;;;10.16;100.00;98600.83;2121067;83;21028;-86
2022/11/05 14:10:14;;;;;;;36.10;26.70;;;;;;;10.14;100.00;98610.63;2135946;83;21076;-84
2022/11/05 14:13:20;;;;;;;36.80;28.10;;;;;;;10.18;100.00;98618.45;2133432;83;21068;-90
2022/11/05 14:16:24;;;;;;;37.63;26.85;;;;;;;10.20;100.00;98618.27;2132283;83;21076;-90
2022/11/05 14:19:26;;;;;;;33.53;24.98;;;;;;;10.18;100.00;98623.69;2134263;83;21048;-89
2022/11/05 14:22:27;;;;;;;30.57;23.65;;;;;;;10.14;100.00;98623.72;2134533;83;21017;-85
2022/11/05 14:25:28;;;;;;;29.75;21.73;;;;;;;10.12;100.00;98621.78;2162459;82;20951;-86
2022/11/05 14:28:30;;;;;;;25.55;20.05;;;;;;;10.10;100.00;98629.00;2139132;82;21564;-88
2022/11/05 14:31:31;;;;;;;23.18;17.42;;;;;;;10.09;100.00;98624.77;2159851;81;21065;-90
2022/11/05 14:34:35;;;;;;;20.23;17.30;;;;;;;10.04;100.00;98623.16;2160957;82;21041;-89
2022/11/05 14:37:35;;;;;;;27.20;18.85;;;;;;;9.96;100.00;98625.84;2163204;82;21026;-87